createdAt,value
2022-11-19T00:03:45.664Z,0.30
2022-11-19T00:08:50.633Z,0.40
2022-11-19T00:13:52.584Z,0.10
2022-11-19T00:18:54.578Z,0.25
2022-11-19T00:23:56.607Z,0.32
2022-11-19T00:28:58.524Z,0.20
2022-11-19T00:34:00.507Z,0.28
2022-11-19T00:39:02.497Z,0.20
2022-11-19T00:44:04.350Z,0.10
2022-11-19T00:49:06.290Z,0.17
2022-11-19T00:54:08.097Z,0.25
2022-11-19T00:59:10.626Z,0.15
2022-11-19T01:04:12.789Z,0.20
2022-11-19T01:09:14.650Z,0.20
2022-11-19T01:14:16.606Z,0.20
2022-11-19T01:19:18.779Z,0.30
2022-11-19T01:24:20.917Z,0.10
2022-11-19T01:29:22.802Z,0.13
2022-11-19T01:34:24.772Z,0.50
2022-11-19T01:39:27.654Z,0.20
2022-11-19T01:45:05.632Z,0.40
2022-11-19T01:50:07.803Z,0.20
2022-11-19T02:02:02.572Z,0.32
2022-11-19T02:07:04.542Z,0.30
2022-11-19T02:12:43.392Z,0.20
2022-11-19T02:18:12.907Z,0.30
2022-11-19T02:23:33.128Z,0.38
2022-11-19T02:28:53.886Z,0.32
2022-11-19T02:34:09.071Z,0.25
2022-11-19T02:39:17.610Z,0.13
2022-11-19T02:45:02.729Z,0.68
2022-11-19T02:50:12.516Z,0.43
2022-11-19T02:55:19.016Z,0.40
2022-11-19T03:00:39.910Z,0.20
2022-11-19T03:05:45.839Z,0.20
2022-11-19T03:11:08.373Z,0.28
2022-11-19T03:16:33.592Z,0.20
2022-11-19T03:21:38.722Z,0.20
2022-11-19T03:26:54.560Z,0.30
2022-11-19T03:32:02.250Z,0.17
2022-11-19T03:37:05.674Z,0.22
2022-11-19T03:42:10.625Z,0.30
2022-11-19T03:47:21.687Z,0.10
2022-11-19T03:52:23.848Z,0.32
2022-11-19T03:57:26.441Z,0.82
2022-11-19T04:02:28.465Z,0.30
2022-11-19T04:07:30.500Z,0.20
2022-11-19T04:13:03.407Z,0.28
2022-11-19T04:18:05.377Z,0.30
2022-11-19T04:23:07.185Z,0.10
2022-11-19T04:28:09.058Z,0.20
2022-11-19T04:33:10.925Z,0.70
2022-11-19T04:38:12.880Z,0.17
2022-11-19T04:43:14.737Z,0.20
2022-11-19T04:48:16.614Z,0.20
2022-11-19T04:53:18.746Z,0.30
2022-11-19T04:58:20.608Z,0.30
2022-11-19T05:03:22.609Z,0.30
2022-11-19T05:08:24.700Z,0.22
2022-11-19T05:13:26.651Z,0.30
2022-11-19T05:25:53.121Z,0.30
2022-11-19T05:30:55.317Z,0.45
2022-11-19T05:35:57.097Z,0.20
2022-11-19T05:40:59.088Z,0.20
2022-11-19T05:46:02.078Z,0.40
2022-11-19T05:51:03.910Z,0.17
2022-11-19T05:56:06.624Z,0.20
2022-11-19T06:01:08.476Z,0.40
2022-11-19T06:06:10.297Z,0.40
2022-11-19T06:11:32.182Z,0.30
2022-11-19T06:16:34.041Z,0.17
2022-11-19T06:21:36.030Z,0.30
2022-11-19T06:27:12.178Z,0.25
2022-11-19T06:32:14.054Z,0.32
2022-11-19T06:37:15.913Z,0.50
2022-11-19T06:42:36.255Z,0.30
2022-11-19T06:47:39.302Z,0.77
2022-11-19T06:52:41.105Z,0.40
2022-11-19T06:57:42.930Z,0.20
2022-11-19T07:02:44.746Z,0.20
2022-11-19T07:07:46.556Z,0.20
2022-11-19T07:19:59.323Z,0.60
2022-11-19T07:25:01.185Z,0.20
2022-11-19T07:30:05.121Z,0.20
2022-11-19T07:35:07.619Z,0.28
2022-11-19T07:40:11.240Z,0.20
2022-11-19T07:45:13.121Z,0.30
2022-11-19T07:50:15.372Z,0.20
2022-11-19T07:55:17.315Z,0.20
2022-11-19T08:00:19.513Z,0.30
2022-11-19T08:05:21.378Z,0.38
2022-11-19T08:10:26.520Z,0.30
2022-11-19T08:15:32.136Z,0.20
2022-11-19T08:20:34.033Z,0.20
2022-11-19T08:25:36.105Z,0.60
2022-11-19T08:30:41.042Z,0.68
2022-11-19T08:35:43.303Z,0.20
2022-11-19T08:40:51.461Z,0.40
2022-11-19T08:47:14.644Z,0.40
2022-11-19T08:57:18.444Z,0.40
2022-11-19T09:02:20.360Z,0.30
2022-11-19T09:07:22.177Z,0.30
2022-11-19T09:12:24.341Z,0.47
2022-11-19T09:17:26.224Z,0.30
2022-11-19T09:22:28.335Z,0.22
2022-11-19T09:27:30.395Z,0.20
2022-11-19T09:32:32.514Z,0.30
2022-11-19T09:37:35.815Z,0.17
2022-11-19T09:42:47.272Z,0.40
2022-11-19T09:48:59.305Z,0.63
2022-11-19T09:54:06.269Z,0.40
2022-11-19T09:59:25.235Z,0.65
2022-11-19T10:04:29.799Z,0.30
2022-11-19T10:09:58.140Z,0.45
2022-11-19T10:15:09.470Z,0.50
2022-11-19T10:20:25.537Z,0.40
2022-11-19T10:25:37.784Z,0.40
2022-11-19T10:30:41.047Z,0.25
2022-11-19T10:35:46.548Z,0.13
2022-11-19T10:40:57.833Z,0.32
2022-11-19T10:46:01.320Z,0.25
2022-11-19T10:51:10.902Z,0.32
2022-11-19T10:56:15.823Z,0.22
2022-11-19T11:01:27.675Z,0.45
2022-11-19T11:06:52.569Z,0.40
2022-11-19T11:12:12.854Z,0.47
2022-11-19T11:18:24.407Z,0.80
2022-11-19T11:23:28.602Z,0.50
2022-11-19T11:28:30.535Z,0.22
2022-11-19T11:33:55.989Z,0.40
2022-11-19T11:38:58.906Z,0.50
2022-11-19T11:44:15.019Z,0.50
2022-11-19T11:49:30.643Z,0.43
2022-11-19T11:54:33.090Z,0.30
2022-11-19T11:59:35.483Z,0.20
2022-11-19T12:04:37.302Z,0.20
2022-11-19T12:09:45.306Z,0.30
2022-11-19T12:15:00.400Z,0.28
2022-11-19T12:20:03.947Z,0.50
2022-11-19T12:25:20.852Z,0.30
2022-11-19T12:30:31.698Z,0.20
2022-11-19T12:35:39.469Z,0.28
2022-11-19T12:40:58.810Z,0.20
2022-11-19T12:46:18.786Z,0.22
2022-11-19T12:51:26.464Z,0.20
2022-11-19T12:56:35.961Z,0.55
2022-11-19T13:01:40.800Z,0.50
2022-11-19T13:11:55.608Z,0.25
2022-11-19T13:16:59.000Z,0.30
2022-11-19T13:22:06.304Z,0.40
2022-11-19T13:27:16.513Z,1.45
2022-11-19T13:32:32.078Z,0.70
2022-11-19T13:37:58.851Z,0.70
2022-11-19T13:43:35.709Z,0.73
2022-11-19T13:48:42.372Z,0.60
2022-11-19T13:53:45.609Z,2.20
2022-11-19T13:58:55.498Z,0.20
2022-11-19T14:04:42.754Z,1.50
2022-11-19T14:10:08.968Z,0.30
2022-11-19T14:15:54.939Z,0.20
2022-11-19T14:21:44.021Z,0.38
2022-11-19T14:26:52.133Z,1.80
2022-11-19T14:32:00.140Z,2.35
2022-11-19T14:37:22.228Z,0.50
2022-11-19T14:42:29.001Z,0.80
2022-11-19T14:47:38.020Z,0.60
2022-11-19T14:52:51.889Z,0.82
2022-11-19T14:58:20.702Z,0.40
2022-11-19T15:03:25.366Z,0.52
2022-11-19T15:08:30.065Z,0.52
2022-11-19T15:13:33.656Z,0.40
2022-11-19T15:18:41.649Z,0.70
2022-11-19T15:24:24.721Z,0.52
2022-11-19T15:30:11.949Z,1.00
2022-11-19T15:35:33.495Z,0.73
2022-11-19T15:40:35.757Z,2.22
2022-11-19T15:47:07.860Z,2.65
2022-11-19T15:52:20.546Z,4.55
2022-11-19T15:57:25.196Z,5.75
2022-11-19T16:02:26.969Z,1.35
2022-11-19T16:07:29.643Z,0.77
2022-11-19T16:12:50.549Z,1.38
2022-11-19T16:17:52.406Z,1.48
2022-11-19T16:23:07.900Z,0.77
2022-11-19T16:28:24.856Z,1.25
2022-11-19T16:33:28.744Z,0.85
2022-11-19T16:38:30.671Z,0.68
2022-11-19T16:43:32.892Z,0.82
2022-11-19T16:48:49.961Z,0.60
2022-11-19T16:53:52.906Z,0.80
2022-11-19T16:58:57.298Z,0.60
2022-11-19T17:04:03.578Z,0.70
2022-11-19T17:09:07.538Z,0.50
2022-11-19T17:14:23.530Z,0.90
2022-11-19T17:19:28.377Z,0.88
2022-11-19T17:24:32.717Z,1.40
2022-11-19T17:36:45.437Z,1.33
2022-11-19T17:42:25.767Z,0.80
2022-11-19T17:54:38.477Z,1.77
2022-11-19T17:59:40.420Z,0.75
2022-11-19T18:04:44.222Z,2.00
2022-11-19T18:09:46.168Z,1.95
2022-11-19T18:14:48.078Z,1.20
2022-11-19T18:19:49.937Z,2.83
2022-11-19T18:24:52.712Z,1.70
2022-11-19T18:29:54.566Z,1.20
2022-11-19T18:35:00.626Z,1.65
2022-11-19T18:40:03.946Z,2.50
2022-11-19T18:45:06.659Z,1.38
2022-11-19T18:50:12.225Z,2.58
2022-11-19T18:55:14.375Z,2.10
2022-11-19T19:00:16.333Z,1.77
2022-11-19T19:05:18.190Z,0.93
2022-11-19T19:10:20.059Z,1.20
2022-11-19T19:15:22.093Z,1.67
2022-11-19T19:20:24.082Z,1.50
2022-11-19T19:25:25.944Z,2.97
2022-11-19T19:30:27.870Z,2.65
2022-11-19T19:35:29.740Z,2.50
2022-11-19T19:40:31.805Z,2.47
2022-11-19T19:45:37.515Z,4.38
2022-11-19T19:50:39.542Z,2.70
2022-11-19T19:55:41.512Z,2.33
2022-11-19T20:00:43.644Z,2.00
2022-11-19T20:05:49.663Z,2.90
2022-11-19T20:10:51.581Z,1.45
2022-11-19T20:15:54.567Z,2.30
2022-11-19T20:22:00.396Z,17.67
2022-11-19T20:27:02.368Z,13.23
2022-11-19T20:32:04.265Z,24.85
2022-11-19T20:37:06.212Z,3.60
2022-11-19T20:42:26.920Z,1.15
2022-11-19T20:47:29.035Z,1.88
2022-11-19T20:52:30.945Z,2.28
2022-11-19T20:57:33.517Z,3.80
2022-11-19T21:02:35.422Z,5.40
2022-11-19T21:08:42.218Z,1.10
2022-11-19T21:13:47.116Z,1.10
2022-11-19T21:18:49.719Z,1.13
2022-11-19T21:23:52.807Z,0.52
2022-11-19T21:28:56.692Z,1.05
2022-11-19T21:33:58.560Z,1.55
2022-11-19T21:39:01.305Z,1.00
2022-11-19T21:44:05.364Z,1.00
2022-11-19T21:49:07.401Z,1.30
2022-11-19T21:54:09.504Z,0.93
2022-11-19T21:59:11.534Z,1.25
2022-11-19T22:04:16.405Z,0.98
2022-11-19T22:09:18.627Z,0.73
2022-11-19T22:14:21.093Z,0.63
2022-11-19T22:19:23.691Z,0.60
2022-11-19T22:24:25.878Z,0.70
2022-11-19T22:29:28.020Z,0.73
2022-11-19T22:34:29.915Z,0.63
2022-11-19T22:39:31.808Z,1.20
2022-11-19T22:44:33.635Z,0.65
2022-11-19T22:49:35.646Z,0.45
2022-11-19T22:54:41.528Z,0.57
2022-11-19T22:59:43.816Z,0.75
2022-11-19T23:04:45.661Z,0.85
2022-11-19T23:09:47.633Z,0.93
2022-11-19T23:14:49.645Z,1.02
2022-11-19T23:19:51.653Z,0.38
2022-11-19T23:24:53.618Z,0.50
2022-11-19T23:29:55.523Z,0.40
2022-11-19T23:34:57.361Z,0.40
2022-11-19T23:39:59.130Z,0.30
2022-11-19T23:45:01.060Z,0.30
2022-11-19T23:50:03.068Z,0.20
